Time;durP1;ratioP1;P1;durP2;ratioP2;P2;SDS_P1;SDS_P2;PMS_P1;PMS_P2;Temp;Humidity;BMP_temperature;BMP_pressure;BME280_temperature;BME280_humidity;BME280_pressure;Samples;Min_cycle;Max_cycle;Signal;HPM_P1;HPM_P2
2022/08/10 00:02:32;;;;;;;4.93;3.43;;;16.90;97.60;;;16.94;67.10;102213.63;5021791;28;20415;-71
2022/08/10 00:05:02;;;;;;;4.70;3.20;;;16.90;98.30;;;17.06;67.00;102211.06;5021627;28;20408;-72
2022/08/10 00:07:32;;;;;;;4.80;3.27;;;16.90;99.40;;;17.03;67.32;102206.03;5024631;28;20448;-71
2022/08/10 00:10:01;;;;;;;3.50;2.50;;;16.90;99.80;;;16.95;67.44;102212.56;5024399;28;20471;-71
2022/08/10 00:12:30;;;;;;;4.03;3.57;;;16.90;99.90;;;16.87;67.79;102212.78;5015798;28;20528;-71
2022/08/10 00:15:22;;;;;;;3.73;3.20;;;16.80;99.90;;;16.84;67.92;102214.06;5012920;28;20677;-71
2022/08/10 00:18:11;;;;;;;5.20;2.80;;;16.80;99.90;;;16.72;68.56;102220.38;5010030;28;20745;-71
2022/08/10 00:21:00;;;;;;;4.30;3.73;;;16.70;99.90;;;16.74;68.98;102223.75;5011962;28;20502;-70
2022/08/10 00:23:30;;;;;;;6.67;3.87;;;16.70;99.90;;;16.68;69.18;102225.41;5010220;28;20825;-70
2022/08/10 00:25:59;;;;;;;6.60;3.87;;;16.70;99.90;;;16.57;69.55;102223.28;5011255;28;20476;-71
2022/08/10 00:28:28;;;;;;;3.33;2.77;;;16.60;99.90;;;16.65;69.46;102214.06;5009323;28;20472;-71
2022/08/10 00:30:57;;;;;;;5.83;3.57;;;16.60;99.90;;;16.61;69.82;102216.38;4992510;28;20535;-71
2022/08/10 00:33:26;;;;;;;6.13;3.73;;;16.60;99.90;;;16.58;69.89;102216.78;5009943;28;20435;-71
2022/08/10 00:35:55;;;;;;;4.10;3.23;;;16.50;99.90;;;16.59;70.05;102213.03;5011003;28;20843;-72
2022/08/10 00:38:24;;;;;;;5.20;3.10;;;16.50;99.90;;;16.55;70.28;102217.19;5011590;28;20441;-71
2022/08/10 00:40:54;;;;;;;6.50;3.90;;;16.50;99.90;;;16.51;70.45;102214.03;5013858;28;20411;-71
2022/08/10 00:43:24;;;;;;;5.17;3.13;;;16.50;99.90;;;16.40;70.87;102208.34;5016883;28;20873;-71
2022/08/10 00:45:53;;;;;;;9.23;4.37;;;16.40;99.90;;;16.41;70.92;102208.13;5011081;28;20428;-71
2022/08/10 00:48:29;;;;;;;5.20;4.13;;;16.40;99.90;;;16.39;71.03;102210.25;5001413;28;20464;-71
2022/08/10 00:50:59;;;;;;;4.23;3.80;;;16.30;99.90;;;16.26;71.42;102201.19;5016226;28;20490;-71
2022/08/10 00:53:29;;;;;;;3.40;2.93;;;16.30;99.90;;;16.20;71.86;102188.38;5012190;28;20431;-71
2022/08/10 00:56:01;;;;;;;4.80;3.80;;;16.20;99.90;;;16.14;72.19;102194.66;5015350;28;20414;-69
2022/08/10 00:58:50;;;;;;;9.70;4.53;;;16.20;99.90;;;16.21;72.28;102198.25;5010794;28;20598;-71
2022/08/10 01:01:19;;;;;;;5.77;3.60;;;16.10;99.90;;;16.30;72.06;102184.19;5008431;28;20546;-71
2022/08/10 01:04:08;;;;;;;5.20;3.43;;;16.20;99.90;;;16.12;72.60;102183.91;5014618;28;20893;-72
2022/08/10 01:07:14;;;;;;;5.03;3.20;;;16.10;99.90;;;16.00;72.88;102183.72;5002209;28;20415;-71
2022/08/10 01:09:58;;;;;;;3.80;3.10;;;16.00;99.90;;;16.13;72.82;102190.22;5015457;28;20469;-71
2022/08/10 01:12:41;;;;;;;5.30;3.77;;;16.10;99.90;;;16.03;73.04;102180.56;5008125;28;20415;-71
2022/08/10 01:15:20;;;;;;;5.83;3.77;;;16.00;99.90;;;16.15;72.84;102177.22;5012962;28;20804;-71
2022/08/10 01:18:00;;;;;;;5.33;3.40;;;16.10;99.90;;;16.11;73.22;102184.16;5016614;28;20411;-72
2022/08/10 01:20:39;;;;;;;6.70;3.10;;;16.00;99.90;;;16.15;73.15;102190.88;5015739;28;20787;-71
2022/08/10 01:24:05;;;;;;;6.00;4.30;;;16.00;99.90;;;16.06;73.46;102191.09;5017288;28;20497;-71
2022/08/10 01:27:16;;;;;;;6.70;3.40;;;16.00;99.90;;;16.11;73.49;102185.00;5021202;28;20439;-71
2022/08/10 01:30:00;;;;;;;10.10;3.90;;;16.00;99.90;;;15.93;74.00;102185.56;5030820;28;20432;-71
2022/08/10 01:32:42;;;;;;;5.50;3.47;;;15.90;99.90;;;15.98;73.86;102191.25;5033626;28;20478;-71
2022/08/10 01:35:19;;;;;;;6.73;3.90;;;15.90;99.90;;;15.84;74.49;102189.53;5029029;28;20770;-71
2022/08/10 01:38:02;;;;;;;5.07;4.23;;;15.80;99.90;;;15.83;74.71;102187.03;5016895;28;20430;-71
2022/08/10 01:40:35;;;;;;;6.40;3.93;;;15.80;99.90;;;15.63;75.46;102181.50;5025679;28;20487;-71
2022/08/10 01:43:09;;;;;;;5.37;4.33;;;15.70;99.90;;;15.56;75.88;102178.75;4998833;28;20518;-71
2022/08/10 01:45:47;;;;;;;4.83;3.87;;;15.60;99.90;;;15.62;75.96;102177.94;5015712;28;20645;-71
2022/08/10 01:48:30;;;;;;;5.03;4.23;;;15.60;99.90;;;15.64;76.06;102180.44;5010171;28;20411;-71
2022/08/10 01:51:13;;;;;;;14.23;4.40;;;15.60;99.90;;;15.49;76.38;102180.56;5010007;28;20936;-71
2022/08/10 01:53:50;;;;;;;6.83;4.83;;;15.50;99.90;;;15.59;76.35;102174.75;5005743;28;20434;-71
2022/08/10 01:56:24;;;;;;;4.93;4.43;;;15.50;99.90;;;15.61;76.30;102173.50;5005921;28;20531;-71
2022/08/10 01:58:58;;;;;;;5.30;4.00;;;15.50;99.90;;;15.67;76.05;102174.59;5009881;28;20437;-72
2022/08/10 02:01:37;;;;;;;5.10;2.80;;;15.50;99.90;;;15.54;76.43;102171.81;5009456;28;20945;-72
2022/08/10 02:04:10;;;;;;;7.00;4.03;;;15.50;99.90;;;15.47;77.22;102171.75;5009668;28;20455;-71
2022/08/10 02:06:46;;;;;;;4.27;3.87;;;15.40;99.90;;;15.48;77.14;102175.31;5007374;28;20643;-71
2022/08/10 02:09:23;;;;;;;4.67;3.93;;;15.40;99.90;;;15.40;77.63;102175.47;5008009;28;20446;-72
2022/08/10 02:11:55;;;;;;;8.70;4.87;;;15.40;99.90;;;15.29;78.18;102178.81;5007739;28;20419;-71
2022/08/10 02:14:42;;;;;;;3.80;3.27;;;15.30;99.90;;;15.18;78.60;102183.78;5008266;28;20530;-72
2022/08/10 02:17:19;;;;;;;7.93;4.60;;;15.20;99.90;;;15.32;78.24;102181.97;5005409;28;20423;-71
2022/08/10 02:20:15;;;;;;;5.23;4.73;;;15.30;99.90;;;15.34;78.20;102187.22;5012034;28;20523;-72
2022/08/10 02:22:49;;;;;;;5.57;4.13;;;15.20;99.90;;;15.33;78.33;102180.06;5006024;28;20501;-71
2022/08/10 02:25:21;;;;;;;4.83;4.33;;;15.30;99.90;;;15.37;78.36;102178.63;4996356;28;20806;-71
2022/08/10 02:28:13;;;;;;;6.10;3.60;;;15.30;99.90;;;15.24;78.89;102182.13;5004513;28;20432;-72
2022/08/10 02:31:03;;;;;;;6.30;4.23;;;15.20;99.90;;;15.14;79.49;102174.31;5004089;28;20439;-72
2022/08/10 02:33:38;;;;;;;9.93;4.60;;;15.10;99.90;;;15.01;80.09;102185.13;5012402;28;20939;-71
2022/08/10 02:36:29;;;;;;;9.17;5.37;;;15.10;99.90;;;15.05;80.00;102172.81;5005721;28;20449;-71
2022/08/10 02:39:04;;;;;;;5.70;4.57;;;15.00;99.90;;;14.97;80.29;102180.28;5006318;28;20411;-71
2022/08/10 02:41:49;;;;;;;7.57;4.80;;;15.00;99.90;;;14.97;80.50;102174.81;4990030;28;20514;-71
2022/08/10 02:44:50;;;;;;;9.60;4.97;;;14.90;99.90;;;15.03;80.32;102183.06;5003716;28;20472;-72
2022/08/10 02:47:47;;;;;;;5.40;4.03;;;15.00;99.90;;;14.91;80.86;102181.09;5009275;28;20519;-72
2022/08/10 02:50:28;;;;;;;7.70;4.90;;;14.90;99.90;;;15.00;80.61;102179.91;5010568;28;20519;-72
2022/08/10 02:53:05;;;;;;;7.13;5.20;;;14.90;99.90;;;14.94;81.00;102176.09;5006371;28;21002;-71
2022/08/10 02:55:43;;;;;;;5.73;4.90;;;14.90;99.90;;;14.88;80.96;102174.16;5006011;28;20447;-72
2022/08/10 02:58:21;;;;;;;6.80;4.87;;;14.80;99.90;;;14.85;81.01;102171.84;5003966;28;20447;-71
2022/08/10 03:00:56;;;;;;;7.30;4.77;;;14.80;99.90;;;14.77;81.72;102182.88;4982007;28;20473;-71
2022/08/10 03:03:31;;;;;;;5.80;4.43;;;14.80;99.90;;;14.66;82.08;102183.44;5001773;28;20866;-71
2022/08/10 03:06:10;;;;;;;6.90;4.50;;;14.70;99.90;;;14.60;82.62;102189.66;5009417;28;20937;-71
2022/08/10 03:08:44;;;;;;;6.40;5.60;;;14.60;99.90;;;14.70;82.30;102190.16;5006182;28;20445;-71
2022/08/10 03:11:22;;;;;;;6.20;5.23;;;14.70;99.90;;;14.74;81.94;102186.00;5003692;28;20460;-70
2022/08/10 03:14:13;;;;;;;7.37;5.20;;;14.70;99.90;;;14.73;82.22;102184.31;5006918;28;20676;-71
2022/08/10 03:16:45;;;;;;;9.63;5.07;;;14.70;99.90;;;14.67;82.54;102185.94;5004526;28;20443;-70
2022/08/10 03:19:15;;;;;;;6.00;4.50;;;14.70;99.90;;;14.77;82.11;102185.59;5002948;28;20434;-71
2022/08/10 03:22:09;;;;;;;7.30;4.50;;;14.70;99.90;;;14.67;82.87;102179.66;5006169;28;21009;-72
2022/08/10 03:24:41;;;;;;;5.60;4.57;;;14.70;99.90;;;14.68;83.03;102184.06;5005852;28;20467;-72
2022/08/10 03:27:12;;;;;;;7.57;5.10;;;14.70;99.90;;;14.70;82.85;102180.13;5015595;28;20498;-72
2022/08/10 03:29:41;;;;;;;5.30;4.80;;;14.70;99.90;;;14.79;82.68;102175.34;5002714;28;20434;-71
2022/08/10 03:32:34;;;;;;;14.60;5.10;;;14.70;99.90;;;14.76;82.46;102178.47;5006484;28;20412;-72
2022/08/10 03:35:06;;;;;;;4.87;4.37;;;14.70;99.90;;;14.69;82.85;102178.41;5017799;28;20891;-71
2022/08/10 03:37:37;;;;;;;7.20;6.17;;;14.70;99.90;;;14.73;82.64;102179.72;5008980;28;20443;-71
2022/08/10 03:40:08;;;;;;;6.77;5.73;;;14.70;99.90;;;14.71;82.74;102181.81;5010047;28;20408;-72
2022/08/10 03:42:40;;;;;;;7.37;5.37;;;14.70;99.90;;;14.65;82.87;102176.28;5016981;28;20794;-71
2022/08/10 03:45:11;;;;;;;5.67;5.10;;;14.60;99.90;;;14.65;83.15;102176.28;5016167;28;20439;-71
2022/08/10 03:47:42;;;;;;;9.77;5.87;;;14.60;99.90;;;14.78;82.70;102187.28;5016275;28;20416;-72
2022/08/10 03:50:14;;;;;;;5.67;5.17;;;14.70;99.90;;;14.84;82.31;102180.19;5013045;28;20842;-72
2022/08/10 03:53:05;;;;;;;13.20;5.37;;;14.70;99.90;;;14.77;82.60;102177.41;5013391;28;20482;-72
2022/08/10 03:55:35;;;;;;;10.73;6.33;;;14.70;99.90;;;14.96;81.78;102187.59;5012987;28;20426;-72
2022/08/10 03:58:24;;;;;;;6.73;5.10;;;14.80;99.90;;;15.04;81.90;102186.63;5012706;28;20416;-72
2022/08/10 04:00:53;;;;;;;6.90;5.77;;;14.80;99.90;;;15.01;81.54;102192.47;5009697;28;20483;-72
2022/08/10 04:03:22;;;;;;;8.43;6.23;;;14.80;99.90;;;15.46;81.29;102191.03;5011957;28;20460;-71
2022/08/10 04:05:57;;;;;;;10.13;6.40;;;15.00;99.90;;;15.99;77.20;102187.47;5013900;28;20452;-71
2022/08/10 04:08:28;;;;;;;8.90;6.13;;;15.20;99.90;;;15.89;77.08;102197.09;5011185;28;20437;-70
2022/08/10 04:10:57;;;;;;;6.63;5.57;;;15.40;99.90;;;15.97;77.97;102192.31;5007315;28;20608;-70
2022/08/10 04:13:26;;;;;;;6.67;5.87;;;15.40;99.90;;;17.09;73.57;102194.25;4996502;28;20475;-71
2022/08/10 04:15:55;;;;;;;11.50;6.17;;;15.90;99.90;;;18.36;68.32;102189.66;5008970;28;20456;-71
2022/08/10 04:18:23;;;;;;;6.30;5.23;;;16.50;99.90;;;18.81;65.88;102189.50;5018261;28;20415;-71
2022/08/10 04:21:01;;;;;;;9.03;5.50;;;17.20;99.90;;;19.63;62.89;102196.44;5009779;28;20470;-71
2022/08/10 04:23:38;;;;;;;7.03;5.07;;;17.60;99.90;;;19.96;61.60;102200.41;5006165;28;20470;-71
2022/08/10 04:26:07;;;;;;;7.60;5.33;;;18.00;99.90;;;20.35;59.79;102199.03;5018246;28;20444;-72
2022/08/10 04:28:36;;;;;;;10.07;7.30;;;18.40;99.70;;;20.94;58.12;102197.16;4993351;28;20419;-72
2022/08/10 04:31:09;;;;;;;13.27;5.43;;;18.80;97.60;;;21.41;56.32;102197.13;5013702;28;20436;-71
2022/08/10 04:33:42;;;;;;;5.67;5.00;;;19.10;92.50;;;21.17;56.64;102199.94;5015882;28;20465;-72
2022/08/10 04:36:13;;;;;;;7.97;4.60;;;19.20;88.20;;;20.76;57.59;102200.88;5009862;28;20818;-71
2022/08/10 04:38:46;;;;;;;7.83;4.80;;;19.30;84.90;;;21.02;56.63;102204.22;5005563;28;20511;-72
2022/08/10 04:41:15;;;;;;;6.70;5.17;;;19.30;82.00;;;20.54;57.85;102219.03;5009234;28;20444;-72
2022/08/10 04:43:44;;;;;;;5.70;4.30;;;19.10;81.30;;;20.35;58.87;102215.50;5013532;28;20459;-72
2022/08/10 04:46:18;;;;;;;6.90;5.90;;;18.90;87.90;;;20.34;58.91;102210.25;5013267;28;20474;-72
2022/08/10 04:49:06;;;;;;;4.70;4.07;;;18.80;91.10;;;21.04;57.21;102213.91;4969245;28;20432;-72
2022/08/10 04:51:55;;;;;;;5.90;4.50;;;19.10;88.20;;;21.10;57.09;102210.22;4971915;28;20445;-72
2022/08/10 04:54:25;;;;;;;5.67;5.17;;;19.20;85.30;;;21.30;56.09;102217.28;4967731;28;20454;-73
2022/08/10 04:56:57;;;;;;;10.40;4.60;;;19.50;78.50;;;21.17;56.39;102213.69;4975816;28;20453;-71
2022/08/10 04:59:26;;;;;;;5.57;4.90;;;19.50;74.70;;;21.87;54.67;102213.53;4973481;28;20438;-71
2022/08/10 05:01:55;;;;;;;5.07;4.53;;;19.60;72.90;;;22.24;53.71;102207.63;4968994;28;20744;-72
2022/08/10 05:04:43;;;;;;;14.33;5.33;;;19.90;63.20;;;23.05;51.64;102214.53;4971424;28;20532;-71
2022/08/10 05:07:14;;;;;;;5.93;4.40;;;20.20;60.20;;;23.42;50.40;102215.63;4970489;28;20426;-73
2022/08/10 05:09:51;;;;;;;7.97;5.07;;;20.40;53.80;;;23.42;50.54;102223.91;4972739;28;20435;-73
2022/08/10 05:12:35;;;;;;;7.63;4.10;;;20.70;51.50;;;23.83;49.54;102220.59;4964177;28;20996;-73
2022/08/10 05:15:08;;;;;;;5.27;4.57;;;20.80;47.00;;;24.09;48.81;102226.41;4970638;28;20561;-72
2022/08/10 05:17:40;;;;;;;6.67;5.17;;;21.00;44.20;;;24.66;47.21;102223.94;4972747;28;20463;-73
2022/08/10 05:20:29;;;;;;;6.33;4.70;;;21.40;41.00;;;24.74;47.09;102230.94;4972108;28;20522;-71
2022/08/10 05:22:58;;;;;;;9.73;4.97;;;21.80;35.20;;;24.11;48.45;102225.03;4974925;28;20470;-70
2022/08/10 05:25:28;;;;;;;5.40;4.90;;;21.80;33.30;;;23.82;49.08;102232.72;4974389;28;20442;-73
2022/08/10 05:28:00;;;;;;;5.57;4.60;;;21.60;33.40;;;21.18;55.75;102231.06;4977987;28;20947;-73
2022/08/10 05:30:34;;;;;;;10.23;5.50;;;20.80;38.00;;;19.47;61.15;102233.59;4965491;28;20453;-71
2022/08/10 05:33:03;;;;;;;11.90;5.70;;;19.70;51.80;;;18.58;64.85;102234.84;4971961;28;20453;-71
2022/08/10 05:35:37;;;;;;;6.70;5.03;;;18.80;82.80;;;17.87;68.04;102236.09;4971843;28;20426;-72
2022/08/10 05:38:27;;;;;;;6.80;5.97;;;18.10;99.90;;;17.47;70.30;102232.66;4964938;28;20529;-72
2022/08/10 05:40:58;;;;;;;7.53;6.37;;;17.60;99.90;;;17.58;70.41;102237.44;4971779;28;20961;-72
2022/08/10 05:43:28;;;;;;;10.57;5.53;;;17.40;99.90;;;17.55;70.77;102232.41;4967479;28;20429;-73
2022/08/10 05:45:56;;;;;;;7.50;4.80;;;17.40;99.90;;;17.37;71.79;102233.97;4972440;28;20410;-73
2022/08/10 05:48:45;;;;;;;8.83;5.17;;;17.20;99.90;;;17.46;71.91;102239.19;4969693;28;20481;-71
2022/08/10 05:51:29;;;;;;;5.40;4.90;;;17.30;99.90;;;17.49;71.97;102239.59;4969859;28;20496;-73
2022/08/10 05:53:59;;;;;;;9.73;6.17;;;17.30;99.90;;;17.74;71.24;102242.47;4967672;28;20469;-72
2022/08/10 05:56:39;;;;;;;5.07;4.57;;;17.50;99.90;;;17.86;70.81;102238.03;4966645;28;20465;-72
2022/08/10 05:59:30;;;;;;;7.40;4.97;;;17.60;99.90;;;18.04;70.16;102245.50;4969042;28;20442;-72
2022/08/10 06:02:30;;;;;;;6.87;4.63;;;17.80;99.90;;;17.87;71.24;102247.88;4973768;28;20442;-73
2022/08/10 06:05:09;;;;;;;5.40;4.47;;;17.70;99.90;;;17.96;70.89;102240.28;4966701;28;20464;-72
2022/08/10 06:07:46;;;;;;;6.43;4.83;;;17.80;99.90;;;18.22;69.62;102245.59;4966771;28;20438;-73
2022/08/10 06:10:17;;;;;;;5.27;4.83;;;17.90;99.90;;;18.25;69.55;102239.66;4967278;28;20691;-72
2022/08/10 06:16:25;;;;;;;6.20;5.03;;;18.20;99.90;;;18.60;68.12;102248.31;4924519;29;20793;-73
2022/08/10 06:18:57;;;;;;;5.67;4.50;;;18.30;99.90;;;18.84;67.28;102250.22;4964701;28;20464;-72
2022/08/10 06:21:28;;;;;;;12.00;4.73;;;18.50;99.90;;;18.94;66.99;102247.81;4971397;28;20405;-72
2022/08/10 06:23:59;;;;;;;5.97;4.43;;;18.70;99.90;;;18.99;66.71;102247.16;4967411;28;20459;-73
2022/08/10 06:26:28;;;;;;;4.60;4.10;;;18.70;99.90;;;19.09;66.01;102242.84;4976260;28;20501;-72
2022/08/10 06:29:06;;;;;;;6.17;4.10;;;18.90;99.90;;;19.05;65.79;102246.25;4967308;28;20936;-74
2022/08/10 06:31:40;;;;;;;5.43;3.77;;;18.90;99.90;;;19.07;66.11;102249.63;4972587;28;20502;-74
2022/08/10 06:34:24;;;;;;;6.40;4.20;;;18.90;99.90;;;19.17;65.64;102252.66;4975368;28;20454;-73
2022/08/10 06:36:57;;;;;;;6.97;3.90;;;19.00;99.90;;;19.25;65.13;102246.91;4971778;28;20446;-73
2022/08/10 06:39:27;;;;;;;8.10;3.60;;;19.10;99.00;;;19.40;64.60;102249.28;4982169;28;20401;-72
2022/08/10 06:42:23;;;;;;;4.83;4.03;;;19.20;98.10;;;19.43;64.52;102244.16;4971286;28;20509;-72
2022/08/10 06:44:59;;;;;;;8.43;3.97;;;19.30;97.00;;;19.46;64.75;102248.41;4966032;28;20869;-73
2022/08/10 06:47:37;;;;;;;5.93;3.83;;;19.30;96.80;;;19.58;64.10;102240.22;4970153;28;20549;-72
2022/08/10 06:50:14;;;;;;;4.63;4.13;;;19.40;96.00;;;19.79;63.91;102248.00;4973055;28;20912;-72
2022/08/10 06:53:11;;;;;;;3.97;3.50;;;19.50;95.30;;;19.93;63.20;102246.75;4966684;28;20482;-72
2022/08/10 06:55:45;;;;;;;7.07;4.20;;;19.70;93.80;;;19.92;62.86;102237.69;4964581;28;20529;-72
2022/08/10 06:58:32;;;;;;;3.73;3.13;;;19.80;92.00;;;19.96;62.67;102236.13;4973199;28;20461;-71
2022/08/10 07:01:05;;;;;;;5.97;4.50;;;19.70;91.60;;;20.20;62.41;102237.06;4971188;28;20442;-71
2022/08/10 07:03:44;;;;;;;5.87;4.07;;;19.90;92.00;;;20.49;61.30;102237.28;4971765;28;20455;-72
2022/08/10 07:06:16;;;;;;;4.97;4.57;;;20.10;89.70;;;20.54;60.65;102240.19;4965867;28;20469;-71
2022/08/10 07:08:47;;;;;;;6.03;3.97;;;20.30;81.30;;;20.61;60.14;102238.19;4969612;28;20881;-71
2022/08/10 07:11:19;;;;;;;5.10;3.77;;;20.40;76.50;;;20.51;60.51;102236.00;4967645;28;20541;-71
2022/08/10 07:13:50;;;;;;;4.80;3.87;;;20.30;76.90;;;20.67;59.68;102237.25;4969385;28;20796;-72
2022/08/10 07:16:44;;;;;;;4.03;3.60;;;20.50;70.30;;;20.99;58.75;102233.06;4971166;28;20495;-72
2022/08/10 07:19:16;;;;;;;5.00;3.93;;;20.70;66.90;;;21.18;57.91;102231.91;4976311;28;20504;-72
2022/08/10 07:21:47;;;;;;;4.63;3.30;;;20.90;60.70;;;21.18;58.04;102231.91;4975244;28;20498;-72
2022/08/10 07:24:17;;;;;;;5.00;3.73;;;21.00;57.40;;;21.35;57.38;102225.66;4970955;28;20462;-72
2022/08/10 07:26:50;;;;;;;4.90;3.47;;;21.10;55.50;;;21.49;55.83;102235.34;4972612;28;20509;-73
2022/08/10 07:29:26;;;;;;;5.03;3.20;;;21.30;50.00;;;21.47;56.02;102237.50;4975567;28;20446;-73
2022/08/10 07:32:21;;;;;;;6.03;4.27;;;21.20;47.60;;;21.78;55.55;102237.06;4973716;28;20567;-72
2022/08/10 07:34:53;;;;;;;3.93;3.53;;;21.50;45.60;;;21.84;54.79;102229.72;4970939;28;20429;-74
2022/08/10 07:37:26;;;;;;;3.53;2.93;;;21.60;41.60;;;21.76;55.22;102230.94;4957173;28;20972;-72
2022/08/10 07:39:56;;;;;;;6.40;3.63;;;21.60;40.60;;;21.97;54.44;102224.81;4977221;28;20924;-71
2022/08/10 07:42:35;;;;;;;5.03;2.70;;;21.80;39.10;;;22.09;53.83;102233.84;4972501;28;20477;-74
2022/08/10 07:45:11;;;;;;;3.80;3.00;;;21.90;37.20;;;22.22;53.32;102235.44;4973649;28;21085;-72
2022/08/10 07:47:47;;;;;;;7.67;3.80;;;22.00;35.10;;;22.41;52.98;102236.91;4973718;28;20485;-73
2022/08/10 07:50:25;;;;;;;4.30;3.83;;;22.10;34.50;;;22.27;53.12;102237.50;4974173;28;20427;-72
2022/08/10 07:53:02;;;;;;;5.10;2.90;;;22.10;32.30;;;22.15;52.62;102239.47;4970574;28;21223;-72
2022/08/10 07:55:34;;;;;;;4.13;3.33;;;22.00;29.90;;;22.27;52.59;102243.00;4956913;28;20424;-72
2022/08/10 07:58:31;;;;;;;4.07;3.00;;;22.10;30.20;;;22.24;52.26;102241.56;4975575;28;20435;-73
2022/08/10 08:01:01;;;;;;;3.93;3.00;;;22.10;29.40;;;22.45;51.60;102240.88;4972981;28;20496;-73
2022/08/10 08:03:33;;;;;;;3.43;2.87;;;22.20;28.70;;;22.61;50.92;102233.66;4970883;28;21016;-72
2022/08/10 08:06:04;;;;;;;7.07;2.83;;;22.40;26.90;;;22.70;51.18;102237.75;4968240;28;20514;-72
2022/08/10 08:08:44;;;;;;;3.53;3.00;;;22.50;26.70;;;22.93;48.78;102237.56;4974510;28;20449;-72
2022/08/10 08:11:15;;;;;;;3.43;2.87;;;22.70;23.60;;;22.80;49.91;102237.06;4970020;28;20908;-71
2022/08/10 08:13:56;;;;;;;4.43;2.90;;;22.60;22.70;;;22.82;49.20;102230.19;4974101;28;20482;-71
2022/08/10 08:16:25;;;;;;;4.70;2.60;;;22.70;21.50;;;22.81;48.58;102239.56;4969753;28;20435;-71
2022/08/10 08:18:59;;;;;;;5.13;3.00;;;22.70;19.60;;;23.10;48.37;102233.94;4971598;28;21008;-71
2022/08/10 08:21:49;;;;;;;4.83;2.73;;;22.80;20.00;;;23.40;48.00;102228.84;4970560;28;20462;-71
2022/08/10 08:24:41;;;;;;;4.40;2.30;;;23.00;19.50;;;23.47;45.11;102231.47;4970212;28;20464;-72
2022/08/10 08:27:15;;;;;;;4.70;2.40;;;23.20;14.60;;;23.73;46.19;102231.53;4970935;28;20883;-73
2022/08/10 08:29:48;;;;;;;3.27;2.50;;;23.30;16.00;;;23.77;46.39;102224.38;4971096;28;20456;-72
2022/08/10 08:32:22;;;;;;;3.07;2.73;;;23.50;15.50;;;23.78;45.50;102214.16;4970111;28;20446;-73
2022/08/10 08:34:57;;;;;;;4.60;3.07;;;23.60;13.60;;;23.73;44.96;102226.00;4969468;28;20448;-71
2022/08/10 08:37:32;;;;;;;3.60;2.50;;;23.60;12.50;;;23.85;44.74;102219.50;4965122;28;20454;-72
2022/08/10 08:40:26;;;;;;;4.20;3.13;;;23.60;11.70;;;23.67;44.83;102227.03;4969772;28;20447;-73
2022/08/10 08:43:44;;;;;;;3.30;2.60;;;23.50;11.10;;;23.83;44.60;102215.06;4969916;28;20968;-72
2022/08/10 08:46:48;;;;;;;3.40;2.40;;;23.60;11.20;;;24.38;43.76;102225.09;4971496;28;20501;-71
2022/08/10 08:49:49;;;;;;;5.47;2.90;;;23.90;10.30;;;24.45;43.03;102209.09;4965691;28;20459;-73
2022/08/10 08:52:57;;;;;;;3.50;2.30;;;24.20;9.00;;;24.21;42.88;102218.81;4977357;28;20564;-72
2022/08/10 08:55:52;;;;;;;2.70;2.40;;;24.10;7.40;;;24.33;42.73;102211.19;4977243;28;20447;-72
2022/08/10 08:58:54;;;;;;;2.63;2.13;;;24.10;7.70;;;24.21;43.73;102218.81;4982049;28;20678;-71
2022/08/10 09:01:50;;;;;;;3.87;2.93;;;24.10;7.70;;;24.54;43.10;102212.22;4976140;28;20459;-71
2022/08/10 09:04:46;;;;;;;5.10;2.90;;;24.30;7.50;;;24.57;40.13;102214.44;4973266;28;20873;-72
2022/08/10 09:07:48;;;;;;;3.70;2.17;;;24.30;3.80;;;24.52;40.85;102208.88;4977802;28;20945;-72
2022/08/10 09:10:48;;;;;;;4.10;2.90;;;24.20;4.20;;;24.72;40.42;102208.22;4975720;28;21011;-71
2022/08/10 09:13:28;;;;;;;2.10;1.47;;;24.40;3.40;;;24.79;39.70;102209.63;4970727;28;20586;-72
2022/08/10 09:16:20;;;;;;;2.90;2.30;;;24.50;2.10;;;24.72;40.42;102205.44;4976189;28;20438;-72
2022/08/10 09:19:02;;;;;;;3.10;2.30;;;24.40;3.10;;;24.96;39.82;102215.06;4968869;28;20447;-73
2022/08/10 09:21:43;;;;;;;2.37;1.87;;;24.60;2.20;;;24.89;38.74;102211.69;4970098;28;20462;-71
2022/08/10 09:24:44;;;;;;;2.80;2.40;;;24.60;1.00;;;24.73;40.12;102207.13;4978292;28;20556;-72
2022/08/10 09:27:21;;;;;;;5.60;2.97;;;24.50;1.40;;;24.82;39.49;102202.75;4976661;28;20453;-72
2022/08/10 09:29:57;;;;;;;2.87;2.30;;;24.60;1.10;;;25.16;38.55;102203.28;4973180;28;20568;-73
2022/08/10 09:32:40;;;;;;;2.40;1.57;;;24.70;1.00;;;25.34;37.17;102211.97;4967515;28;20531;-72
2022/08/10 09:35:52;;;;;;;2.80;1.93;;;24.90;1.00;;;25.30;37.25;102205.31;4970923;28;20748;-71
2022/08/10 09:38:58;;;;;;;3.90;1.97;;;25.00;1.00;;;25.36;37.12;102204.25;4973121;28;20525;-73
2022/08/10 09:41:41;;;;;;;3.33;2.57;;;25.10;1.00;;;25.11;36.46;102195.78;4969338;28;20550;-72
2022/08/10 09:44:26;;;;;;;2.40;1.83;;;25.00;1.00;;;25.28;36.59;102193.63;4973817;28;20479;-71
2022/08/10 09:47:25;;;;;;;2.10;1.43;;;25.10;1.00;;;25.34;35.48;102188.97;4968345;28;20466;-72
2022/08/10 09:50:25;;;;;;;3.30;1.87;;;25.10;1.00;;;24.98;36.36;102190.72;4967890;28;20446;-72
2022/08/10 09:53:23;;;;;;;2.73;2.23;;;24.80;1.00;;;25.12;37.34;102186.38;4973233;28;20817;-72
2022/08/10 09:56:09;;;;;;;2.33;2.10;;;24.80;1.00;;;25.17;37.85;102188.34;4970239;28;20646;-71
2022/08/10 09:59:04;;;;;;;6.30;3.37;;;24.90;1.00;;;25.53;37.56;102181.84;4969714;28;20760;-72
2022/08/10 10:02:08;;;;;;;5.73;3.40;;;25.10;1.00;;;25.99;37.20;102179.25;4966342;28;20447;-72
2022/08/10 10:04:51;;;;;;;7.00;4.00;;;25.50;1.00;;;26.19;36.28;102182.88;4971872;28;21088;-73
2022/08/10 10:07:27;;;;;;;3.17;2.10;;;25.80;1.00;;;25.87;35.92;102183.09;4970076;28;20492;-73
2022/08/10 10:10:04;;;;;;;3.70;2.20;;;25.80;1.00;;;26.14;35.51;102177.31;4972317;28;20447;-71
2022/08/10 10:12:49;;;;;;;2.27;1.83;;;25.80;1.00;;;26.01;35.22;102174.25;4964927;28;20968;-72
2022/08/10 10:15:35;;;;;;;2.80;2.10;;;25.80;1.00;;;25.96;35.35;102180.63;4969460;28;20442;-73
2022/08/10 10:18:26;;;;;;;2.60;1.87;;;25.80;1.00;;;25.89;34.87;102171.75;4968949;28;20445;-73
2022/08/10 10:21:05;;;;;;;2.40;1.57;;;25.80;1.00;;;25.72;35.15;102171.13;4970742;28;20581;-71
2022/08/10 10:23:50;;;;;;;4.77;1.60;;;25.50;1.00;;;25.82;34.42;102169.22;4971536;28;20493;-72
2022/08/10 10:26:52;;;;;;;2.70;1.30;;;25.50;1.00;;;25.97;34.03;102162.88;4969106;28;20434;-71
2022/08/10 10:29:41;;;;;;;2.20;1.43;;;25.50;1.00;;;26.35;32.70;102156.84;4967612;28;20534;-72
2022/08/10 10:32:43;;;;;;;2.50;1.50;;;25.80;1.00;;;26.53;32.70;102158.22;4973906;28;20457;-73
2022/08/10 10:35:24;;;;;;;2.20;1.40;;;26.20;1.00;;;26.32;33.26;102151.84;4971539;28;21022;-72
2022/08/10 10:37:56;;;;;;;2.20;1.77;;;26.10;1.00;;;26.37;33.06;102151.84;4970371;28;20856;-73
2022/08/10 10:40:45;;;;;;;2.40;2.03;;;26.10;1.00;;;26.33;33.44;102147.97;4970977;28;20443;-73
2022/08/10 10:43:44;;;;;;;3.27;1.43;;;26.00;1.00;;;26.36;33.60;102136.31;4972686;28;20500;-72
2022/08/10 10:46:28;;;;;;;2.90;2.43;;;26.00;1.00;;;27.00;32.90;102141.22;4956283;28;20450;-72
2022/08/10 10:49:11;;;;;;;2.17;1.83;;;26.40;1.00;;;27.11;32.64;102134.50;4988525;28;20462;-73
2022/08/10 10:51:54;;;;;;;2.60;2.17;;;26.80;1.00;;;26.49;33.60;102134.06;4991684;28;20556;-72
2022/08/10 10:54:56;;;;;;;3.80;1.60;;;26.40;1.00;;;26.60;33.29;102138.50;4991658;28;20553;-73
2022/08/10 10:57:32;;;;;;;5.73;1.40;;;26.40;1.00;;;26.62;33.53;102137.13;4989573;28;20449;-72
2022/08/10 11:00:27;;;;;;;2.73;1.60;;;26.40;1.00;;;26.75;33.72;102127.38;5035302;22;20498;-71
2022/08/10 11:03:36;;;;;;;3.40;2.30;;;26.40;1.00;;;26.76;33.69;102145.69;5050456;28;20434;-73
2022/08/10 11:06:18;;;;;;;2.87;1.87;;;26.50;1.00;;;26.85;33.38;102135.69;5049869;28;20966;-72
2022/08/10 11:08:56;;;;;;;2.97;2.03;;;26.50;1.00;;;26.86;33.25;102129.06;5050737;28;20452;-71
2022/08/10 11:11:33;;;;;;;2.63;2.27;;;26.40;1.00;;;26.85;33.36;102132.91;5048872;28;20550;-68